Time;durP1;ratioP1;P1;durP2;ratioP2;P2;SDS_P1;SDS_P2;PMS_P1;PMS_P2;Temp;Humidity;BMP_temperature;BMP_pressure;BME280_temperature;BME280_humidity;BME280_pressure;Samples;Min_cycle;Max_cycle;Signal;HPM_P1;HPM_P2
2022/09/08 04:00:54;;;;;;;8.87;8.03;;;15.50;99.90;;;;;;5754626;23;20501;-72
2022/09/08 04:03:21;;;;;;;8.13;7.43;;;15.40;99.90;;;;;;4991254;28;20480;-69
2022/09/08 04:05:48;;;;;;;7.90;6.93;;;15.40;99.90;;;;;;4990650;28;20470;-69
2022/09/08 04:08:14;;;;;;;7.37;6.80;;;15.40;99.90;;;;;;4991353;28;20577;-72
2022/09/08 04:10:43;;;;;;;8.40;7.70;;;15.40;99.90;;;;;;4990775;28;20502;-71
2022/09/08 04:13:11;;;;;;;8.20;7.67;;;15.40;99.90;;;;;;5014402;23;20467;-72
2022/09/08 04:15:38;;;;;;;8.63;7.93;;;15.40;99.90;;;;;;4990713;28;20508;-73
2022/09/08 04:18:07;;;;;;;9.20;8.30;;;15.40;99.90;;;;;;4991273;28;20484;-73
2022/09/08 04:20:33;;;;;;;7.93;7.30;;;15.40;99.90;;;;;;4990623;28;20458;-73
2022/09/08 04:23:00;;;;;;;7.20;6.60;;;15.40;99.90;;;;;;4991033;28;20462;-73
2022/09/08 04:25:27;;;;;;;8.03;7.43;;;15.40;99.90;;;;;;4990518;28;20491;-73
2022/09/08 04:27:53;;;;;;;7.63;6.90;;;15.40;99.90;;;;;;4991058;28;20466;-73
2022/09/08 04:30:21;;;;;;;9.70;6.70;;;15.30;99.90;;;;;;4991344;28;20512;-73
2022/09/08 04:32:48;;;;;;;7.63;7.10;;;15.30;99.90;;;;;;4990890;28;20469;-73
2022/09/08 04:35:16;;;;;;;8.13;7.43;;;15.30;99.90;;;;;;4990755;28;20505;-72
2022/09/08 04:37:43;;;;;;;6.43;5.90;;;15.30;99.90;;;;;;4986988;28;20467;-73
2022/09/08 04:40:10;;;;;;;9.73;8.47;;;15.30;99.90;;;;;;4971040;28;20835;-73
2022/09/08 04:42:37;;;;;;;7.40;6.70;;;15.20;99.90;;;;;;4990335;28;20468;-73
2022/09/08 04:45:05;;;;;;;8.37;6.30;;;15.20;99.90;;;;;;4991015;28;20705;-73
2022/09/08 04:47:32;;;;;;;7.10;6.60;;;15.20;99.90;;;;;;4990786;28;20861;-73
2022/09/08 04:49:59;;;;;;;8.53;7.13;;;15.20;99.90;;;;;;4990926;28;20494;-73
2022/09/08 04:52:27;;;;;;;7.27;6.67;;;15.20;99.90;;;;;;4990587;28;20553;-73
2022/09/08 04:54:55;;;;;;;8.17;7.47;;;15.20;99.90;;;;;;4988364;28;20494;-73
2022/09/08 04:57:21;;;;;;;7.53;6.70;;;15.20;99.90;;;;;;4981756;28;20505;-73
2022/09/08 04:59:48;;;;;;;7.57;6.93;;;15.20;99.90;;;;;;4976828;28;20477;-72
2022/09/08 05:02:15;;;;;;;7.60;6.77;;;15.20;99.90;;;;;;4974432;28;20964;-73
2022/09/08 05:04:42;;;;;;;7.67;7.03;;;15.20;99.90;;;;;;4974172;28;20606;-72
2022/09/08 05:07:09;;;;;;;7.30;6.87;;;15.20;99.90;;;;;;4982214;28;20463;-73
2022/09/08 05:09:37;;;;;;;6.13;5.73;;;15.20;99.90;;;;;;4977874;28;20481;-73
2022/09/08 05:12:04;;;;;;;6.93;6.43;;;15.20;99.90;;;;;;4981714;28;20502;-73
2022/09/08 05:14:30;;;;;;;7.67;6.90;;;15.20;99.90;;;;;;4980760;28;20490;-73
2022/09/08 05:16:57;;;;;;;8.03;7.20;;;15.20;99.90;;;;;;4974526;28;20464;-73
2022/09/08 05:19:24;;;;;;;6.43;6.03;;;15.20;99.90;;;;;;4979607;28;20471;-73
2022/09/08 05:21:51;;;;;;;6.97;6.30;;;15.20;99.90;;;;;;4980908;28;20470;-73
2022/09/08 05:24:17;;;;;;;7.43;6.77;;;15.20;99.90;;;;;;4974002;28;20493;-73
2022/09/08 05:26:45;;;;;;;7.00;6.40;;;15.30;99.90;;;;;;4976393;28;20470;-73
2022/09/08 05:29:12;;;;;;;6.60;6.00;;;15.30;99.90;;;;;;4980526;28;20920;-72
2022/09/08 05:31:39;;;;;;;5.77;5.07;;;15.30;99.90;;;;;;4982277;28;21147;-73
2022/09/08 05:34:05;;;;;;;6.17;5.67;;;15.40;99.90;;;;;;4974412;28;20632;-73
2022/09/08 05:36:35;;;;;;;5.27;4.97;;;15.40;99.90;;;;;;4973989;28;20467;-73
2022/09/08 05:39:03;;;;;;;5.77;5.37;;;15.40;99.90;;;;;;4980594;28;20475;-73
2022/09/08 05:41:31;;;;;;;5.80;5.40;;;15.50;99.90;;;;;;4984357;28;20959;-73
2022/09/08 05:44:00;;;;;;;5.83;5.50;;;15.50;99.90;;;;;;4985613;28;20533;-72
2022/09/08 05:46:28;;;;;;;6.23;5.83;;;15.50;99.90;;;;;;4983238;28;20563;-73
2022/09/08 05:48:57;;;;;;;4.90;4.50;;;15.60;99.90;;;;;;4992983;28;20470;-73
2022/09/08 05:51:24;;;;;;;6.20;5.73;;;15.50;99.90;;;;;;4983457;28;20577;-73
2022/09/08 05:53:51;;;;;;;5.47;5.10;;;15.60;99.90;;;;;;4973515;28;20495;-72
2022/09/08 05:56:19;;;;;;;5.13;4.90;;;15.60;99.90;;;;;;4973889;28;20467;-72
2022/09/08 05:58:51;;;;;;;5.37;5.00;;;15.70;99.90;;;;;;4974353;28;20475;-72
2022/09/08 06:01:19;;;;;;;4.90;4.50;;;15.70;99.90;;;;;;4983514;28;21061;-72
2022/09/08 06:03:46;;;;;;;4.57;4.37;;;15.80;99.90;;;;;;4993200;28;20820;-72
2022/09/08 06:06:14;;;;;;;5.40;5.00;;;15.80;99.90;;;;;;4992935;28;20459;-72
2022/09/08 06:08:41;;;;;;;3.83;3.63;;;15.90;99.90;;;;;;4993335;28;20466;-73
2022/09/08 06:11:09;;;;;;;4.13;3.80;;;16.00;99.90;;;;;;4983088;28;20487;-73
2022/09/08 06:13:36;;;;;;;4.33;4.03;;;16.00;99.90;;;;;;4973971;28;21026;-73
2022/09/08 06:16:04;;;;;;;4.80;4.50;;;16.10;99.90;;;;;;4973879;28;20504;-73
2022/09/08 06:18:34;;;;;;;7.23;4.57;;;16.20;99.90;;;;;;4973568;28;20831;-73
2022/09/08 06:21:05;;;;;;;5.03;4.60;;;16.20;99.90;;;;;;4980805;28;20467;-74
2022/09/08 06:23:32;;;;;;;3.77;3.57;;;16.20;99.90;;;;;;4974190;28;20485;-73
2022/09/08 06:26:10;;;;;;;6.40;4.10;;;16.30;99.90;;;;;;4973109;28;20481;-73
2022/09/08 06:28:44;;;;;;;3.93;3.33;;;16.30;99.90;;;;;;4973685;28;20494;-73
2022/09/08 06:31:13;;;;;;;4.17;3.97;;;16.30;99.90;;;;;;4979059;28;21066;-73
2022/09/08 06:33:42;;;;;;;3.30;3.20;;;16.40;99.90;;;;;;4984591;28;20593;-72
2022/09/08 06:36:16;;;;;;;2.90;2.77;;;16.40;99.90;;;;;;4992127;28;20482;-73
2022/09/08 06:38:48;;;;;;;3.80;3.60;;;16.40;99.90;;;;;;4992835;28;20468;-73
2022/09/08 06:41:19;;;;;;;3.03;2.93;;;16.40;99.90;;;;;;4982721;28;20970;-71
2022/09/08 06:43:50;;;;;;;3.13;2.93;;;16.40;99.90;;;;;;4980519;28;20488;-71
2022/09/08 06:46:22;;;;;;;4.60;4.30;;;16.40;99.90;;;;;;4984240;28;20554;-71
2022/09/08 06:48:51;;;;;;;3.37;3.17;;;16.40;99.90;;;;;;4980935;28;20952;-71
2022/09/08 06:51:28;;;;;;;4.10;3.90;;;16.50;99.90;;;;;;4972443;28;20488;-71
2022/09/08 06:54:05;;;;;;;3.77;3.57;;;16.50;99.90;;;;;;4975242;28;20496;-71
2022/09/08 06:56:51;;;;;;;2.87;2.77;;;16.50;99.90;;;;;;4980905;28;20476;-71
2022/09/08 06:59:28;;;;;;;3.40;3.23;;;16.50;99.90;;;;;;4973023;28;20469;-71
2022/09/08 07:02:12;;;;;;;3.33;3.10;;;16.50;99.90;;;;;;4973021;28;20464;-71
2022/09/08 07:04:46;;;;;;;4.53;2.63;;;16.50;99.90;;;;;;4979430;28;20491;-71
2022/09/08 07:07:19;;;;;;;3.47;3.37;;;16.50;99.90;;;;;;4983661;28;20987;-73
2022/09/08 07:09:54;;;;;;;2.43;2.33;;;16.50;99.90;;;;;;4975037;28;20461;-73
2022/09/08 07:12:36;;;;;;;2.63;2.63;;;16.40;99.90;;;;;;4985304;28;20496;-73
2022/09/08 07:15:25;;;;;;;3.07;2.80;;;16.40;99.90;;;;;;4995963;28;20580;-73
2022/09/08 07:17:56;;;;;;;2.77;2.50;;;16.40;99.90;;;;;;4982617;28;20476;-73
2022/09/08 07:20:26;;;;;;;3.60;3.50;;;16.40;99.90;;;;;;4973257;28;20965;-73
2022/09/08 07:22:58;;;;;;;2.67;2.60;;;16.40;99.90;;;;;;4972477;28;20847;-73
2022/09/08 07:25:33;;;;;;;3.27;3.13;;;16.40;99.90;;;;;;4981129;28;20481;-73
2022/09/08 07:28:05;;;;;;;2.27;2.20;;;16.40;99.90;;;;;;4979423;28;20472;-73
2022/09/08 07:30:35;;;;;;;3.00;2.80;;;16.50;99.90;;;;;;4972088;28;20493;-73
2022/09/08 07:33:06;;;;;;;2.33;2.30;;;16.50;99.90;;;;;;4973000;28;20470;-73
2022/09/08 07:35:52;;;;;;;2.77;2.67;;;16.50;99.90;;;;;;4980428;28;20478;-73
2022/09/08 07:38:26;;;;;;;3.30;3.10;;;16.50;99.90;;;;;;4971574;28;20956;-73
2022/09/08 07:40:56;;;;;;;2.80;2.60;;;16.50;99.90;;;;;;4972028;28;20468;-73
2022/09/08 07:43:25;;;;;;;2.50;2.50;;;16.50;99.90;;;;;;4975257;28;20504;-73
2022/09/08 07:46:04;;;;;;;2.97;2.83;;;16.60;99.90;;;;;;4993320;28;20461;-73
2022/09/08 07:48:40;;;;;;;5.20;3.20;;;16.60;99.90;;;;;;4985446;28;20445;-73
2022/09/08 07:51:13;;;;;;;2.53;2.43;;;16.70;99.90;;;;;;4984970;28;20487;-73
2022/09/08 07:54:05;;;;;;;2.00;1.90;;;16.80;99.90;;;;;;4987315;28;20503;-73
2022/09/08 07:56:39;;;;;;;2.43;2.43;;;16.80;99.90;;;;;;5004006;28;20464;-72
2022/09/08 07:59:19;;;;;;;1.80;1.80;;;16.90;99.90;;;;;;5006372;28;20806;-72
2022/09/08 08:01:54;;;;;;;2.67;2.57;;;16.90;99.90;;;;;;5006452;28;20524;-72
2022/09/08 08:04:50;;;;;;;2.27;2.07;;;17.00;99.90;;;;;;4995709;28;20495;-72
2022/09/08 08:07:26;;;;;;;3.67;2.20;;;17.10;99.90;;;;;;5002674;28;20457;-72
2022/09/08 08:09:58;;;;;;;2.20;2.10;;;17.20;99.90;;;;;;5004353;28;20558;-72
2022/09/08 08:12:34;;;;;;;2.30;2.17;;;17.30;99.90;;;;;;4998173;28;20493;-72
2022/09/08 08:15:10;;;;;;;1.93;1.93;;;17.30;99.90;;;;;;4997108;28;20591;-72
2022/09/08 08:17:44;;;;;;;3.03;2.97;;;17.10;99.90;;;;;;4993530;28;20466;-73
2022/09/08 08:20:21;;;;;;;2.07;2.03;;;17.10;99.90;;;;;;4984039;28;20481;-73
2022/09/08 08:23:11;;;;;;;3.13;2.77;;;17.10;99.90;;;;;;4983778;28;20461;-73
2022/09/08 08:25:45;;;;;;;2.83;2.63;;;17.10;99.90;;;;;;4991857;28;20474;-73
2022/09/08 08:28:16;;;;;;;1.63;1.53;;;17.20;99.90;;;;;;4989504;28;20458;-73
2022/09/08 08:30:49;;;;;;;2.57;2.57;;;17.20;99.90;;;;;;4993459;28;20490;-73
2022/09/08 08:33:20;;;;;;;2.07;2.07;;;17.20;99.90;;;;;;4987290;28;20482;-74
2022/09/08 08:35:57;;;;;;;6.27;2.07;;;17.20;99.90;;;;;;4986657;28;20465;-73
2022/09/08 08:38:30;;;;;;;2.10;1.97;;;17.20;99.90;;;;;;4993016;28;20539;-73
2022/09/08 08:40:59;;;;;;;2.43;2.27;;;17.30;99.90;;;;;;4991505;28;20466;-72
2022/09/08 08:43:58;;;;;;;2.67;2.47;;;17.40;99.90;;;;;;4990243;28;20491;-72
2022/09/08 08:46:50;;;;;;;3.50;2.90;;;17.50;99.90;;;;;;4990660;28;20461;-73
2022/09/08 08:49:43;;;;;;;6.93;2.27;;;17.60;99.90;;;;;;4963018;28;20467;-72
2022/09/08 08:52:27;;;;;;;1.77;1.77;;;17.50;99.90;;;;;;4980965;28;20822;-72
2022/09/08 08:55:13;;;;;;;1.70;1.70;;;17.60;99.90;;;;;;4981399;28;20488;-72
2022/09/08 08:57:55;;;;;;;1.87;1.87;;;17.60;99.90;;;;;;4995804;28;20476;-72
2022/09/08 09:00:24;;;;;;;2.77;2.67;;;17.60;99.90;;;;;;4995522;28;20484;-72
2022/09/08 09:03:16;;;;;;;2.37;2.27;;;17.60;99.90;;;;;;4989519;28;21006;-72
2022/09/08 09:05:54;;;;;;;2.00;1.63;;;17.60;99.90;;;;;;4987530;28;20473;-72
2022/09/08 09:08:49;;;;;;;2.23;2.23;;;17.60;99.90;;;;;;4993431;28;20484;-72
2022/09/08 09:11:37;;;;;;;2.60;2.40;;;17.60;99.90;;;;;;4982204;28;20592;-72
2022/09/08 09:14:21;;;;;;;2.53;2.50;;;17.70;99.90;;;;;;4979680;28;20950;-72
2022/09/08 09:17:06;;;;;;;1.60;1.50;;;17.70;99.90;;;;;;4975140;28;20588;-72
2022/09/08 09:19:57;;;;;;;1.83;1.77;;;17.70;99.90;;;;;;4982526;28;20478;-74
2022/09/08 09:22:33;;;;;;;1.67;1.67;;;17.80;99.90;;;;;;4982225;28;20825;-73
2022/09/08 09:25:12;;;;;;;2.57;2.37;;;17.70;99.90;;;;;;4974412;28;20513;-74
2022/09/08 09:27:44;;;;;;;3.17;2.30;;;17.70;99.90;;;;;;4974642;28;20472;-73
2022/09/08 09:30:24;;;;;;;2.73;2.20;;;17.60;99.90;;;;;;4981664;28;20473;-72
2022/09/08 09:33:24;;;;;;;1.70;1.70;;;17.50;99.90;;;;;;4987180;28;20488;-72
2022/09/08 09:36:05;;;;;;;3.00;2.80;;;17.50;99.90;;;;;;4993005;28;20520;-72
2022/09/08 09:38:42;;;;;;;2.47;2.37;;;17.50;99.90;;;;;;4993043;28;20477;-72
2022/09/08 09:41:35;;;;;;;2.27;2.27;;;17.40;99.90;;;;;;4985024;28;20793;-72
2022/09/08 09:44:35;;;;;;;2.57;2.47;;;17.30;99.90;;;;;;4974558;28;20494;-72
2022/09/08 09:47:26;;;;;;;2.10;2.10;;;17.10;99.90;;;;;;4959474;28;20465;-72
2022/09/08 09:50:28;;;;;;;3.10;3.00;;;16.90;99.90;;;;;;4980956;28;20465;-72
2022/09/08 09:53:07;;;;;;;2.70;2.60;;;16.80;99.90;;;;;;4987640;28;20843;-72
2022/09/08 09:56:00;;;;;;;3.00;2.80;;;16.70;99.90;;;;;;4993216;28;20471;-72
2022/09/08 09:59:08;;;;;;;2.60;2.50;;;16.60;99.90;;;;;;4992825;28;20472;-72
2022/09/08 10:01:54;;;;;;;3.30;3.10;;;16.50;99.90;;;;;;4989694;28;20486;-72
2022/09/08 10:05:03;;;;;;;4.27;3.87;;;16.50;99.90;;;;;;4973419;28;20568;-71
2022/09/08 10:08:26;;;;;;;7.43;3.13;;;16.30;99.90;;;;;;4971915;28;20479;-72
2022/09/08 10:11:06;;;;;;;4.03;3.83;;;16.10;99.90;;;;;;4981575;28;20463;-72
2022/09/08 10:14:14;;;;;;;3.37;3.13;;;15.80;99.90;;;;;;4992177;28;20593;-71
2022/09/08 10:17:10;;;;;;;3.63;3.43;;;15.60;99.90;;;;;;4993181;23;20516;-72
2022/09/08 10:20:06;;;;;;;4.00;3.73;;;15.50;99.90;;;;;;4979266;28;20553;-72
2022/09/08 10:23:12;;;;;;;5.40;3.90;;;15.60;99.90;;;;;;4989753;28;20540;-71
2022/09/08 10:26:21;;;;;;;3.57;3.33;;;15.50;99.90;;;;;;4998255;28;21025;-74
2022/09/08 10:29:07;;;;;;;4.40;4.00;;;15.40;99.90;;;;;;4966749;28;20476;-74
2022/09/08 10:32:01;;;;;;;3.27;3.17;;;15.40;99.90;;;;;;4994746;28;20462;-73
2022/09/08 10:34:46;;;;;;;3.90;3.23;;;15.50;99.90;;;;;;4993550;28;20576;-72
2022/09/08 10:37:35;;;;;;;3.33;3.10;;;15.50;99.90;;;;;;4993387;28;20829;-75
2022/09/08 10:40:23;;;;;;;4.40;4.03;;;15.40;99.90;;;;;;4980352;28;20970;-73
2022/09/08 10:42:52;;;;;;;3.60;3.40;;;15.40;99.90;;;;;;4981630;28;20480;-73
2022/09/08 10:45:38;;;;;;;3.70;3.40;;;15.30;99.90;;;;;;4991462;28;20478;-74
2022/09/08 10:48:35;;;;;;;4.97;3.23;;;15.30;99.90;;;;;;4984597;28;20470;-74
2022/09/08 10:51:25;;;;;;;3.70;3.43;;;15.20;99.90;;;;;;4982850;28;20510;-74
2022/09/08 10:54:06;;;;;;;4.40;4.00;;;15.20;99.90;;;;;;4955685;28;20465;-73
2022/09/08 10:56:33;;;;;;;6.93;5.00;;;15.10;99.90;;;;;;4955942;28;20497;-74
2022/09/08 10:59:35;;;;;;;3.10;2.90;;;15.10;99.90;;;;;;4957640;28;20506;-74
2022/09/08 11:02:14;;;;;;;3.20;2.97;;;15.10;99.90;;;;;;4976764;28;20472;-74
2022/09/08 11:05:29;;;;;;;3.67;3.57;;;15.20;99.90;;;;;;4977184;28;20946;-74
2022/09/08 11:08:32;;;;;;;6.10;3.17;;;15.10;99.90;;;;;;4994247;28;20472;-73
2022/09/08 11:11:36;;;;;;;6.60;4.67;;;15.20;99.90;;;;;;4975867;28;20490;-74
2022/09/08 11:14:06;;;;;;;4.20;3.90;;;15.20;99.90;;;;;;4943118;28;20463;-73
2022/09/08 11:16:49;;;;;;;3.77;3.43;;;15.20;99.90;;;;;;4955536;28;20518;-73
2022/09/08 11:19:41;;;;;;;5.13;4.70;;;15.10;99.90;;;;;;4955204;28;20824;-73
2022/09/08 11:22:21;;;;;;;4.27;4.00;;;15.20;99.90;;;;;;4986822;28;20838;-74
2022/09/08 11:25:00;;;;;;;4.30;4.03;;;15.20;99.90;;;;;;4991932;28;20473;-74
2022/09/08 11:27:39;;;;;;;3.90;3.60;;;15.30;99.90;;;;;;4994950;28;20473;-73
2022/09/08 11:30:18;;;;;;;4.60;3.33;;;15.30;99.90;;;;;;4984525;28;20799;-73
2022/09/08 11:32:57;;;;;;;3.63;3.33;;;15.30;99.90;;;;;;4979443;28;21059;-74
2022/09/08 11:35:36;;;;;;;4.60;4.20;;;15.30;99.90;;;;;;4993983;28;20490;-74
2022/09/08 11:38:28;;;;;;;2.80;2.60;;;15.30;99.90;;;;;;4980486;28;20481;-74
2022/09/08 11:41:31;;;;;;;4.63;4.40;;;15.20;99.90;;;;;;4977000;28;20493;-74
2022/09/08 11:44:16;;;;;;;7.97;4.60;;;15.20;99.90;;;;;;4968631;28;20462;-73
2022/09/08 11:46:59;;;;;;;4.00;3.70;;;15.10;99.90;;;;;;4973376;28;20491;-74
2022/09/08 11:49:44;;;;;;;4.27;4.07;;;15.10;99.90;;;;;;4973146;28;20518;-74
2022/09/08 11:52:33;;;;;;;4.87;4.67;;;15.00;99.90;;;;;;4984190;28;20486;-74
2022/09/08 11:55:16;;;;;;;2.90;2.70;;;15.00;99.90;;;;;;4993296;28;20565;-74
2022/09/08 11:57:58;;;;;;;5.23;4.63;;;15.00;99.90;;;;;;4992577;28;21079;-74
2022/09/08 12:01:02;;;;;;;5.50;4.90;;;15.00;99.90;;;;;;4979101;28;20785;-74
2022/09/08 12:04:05;;;;;;;4.20;3.97;;;15.10;99.90;;;;;;4973085;28;20462;-74
2022/09/08 12:07:10;;;;;;;11.70;3.10;;;15.10;99.90;;;;;;4992227;28;20489;-74
2022/09/08 12:10:03;;;;;;;3.77;3.63;;;15.10;99.90;;;;;;4978078;28;20464;-74
2022/09/08 12:12:48;;;;;;;3.87;3.67;;;15.20;99.90;;;;;;4984667;28;20498;-74
2022/09/08 12:15:26;;;;;;;4.70;4.40;;;15.20;99.90;;;;;;4992962;28;20481;-73
2022/09/08 12:18:17;;;;;;;4.97;4.57;;;15.10;99.90;;;;;;4965943;28;20479;-74
2022/09/08 12:20:59;;;;;;;5.13;4.23;;;15.10;99.90;;;;;;4973841;28;21027;-73
2022/09/08 12:23:39;;;;;;;5.47;5.07;;;15.10;99.90;;;;;;4992191;28;20463;-75
2022/09/08 12:26:28;;;;;;;4.97;4.77;;;15.10;99.90;;;;;;4996518;28;20920;-72
2022/09/08 12:29:24;;;;;;;5.40;5.00;;;15.20;99.90;;;;;;4996290;28;20488;-73
2022/09/08 12:32:22;;;;;;;5.47;5.17;;;15.20;99.90;;;;;;4977379;28;20488;-73
2022/09/08 12:35:27;;;;;;;6.63;6.13;;;15.30;99.90;;;;;;4973903;28;20457;-73
2022/09/08 12:38:00;;;;;;;6.00;5.60;;;15.20;99.90;;;;;;4977991;28;20467;-75
2022/09/08 12:40:58;;;;;;;6.03;5.50;;;15.20;99.90;;;;;;4983347;28;20494;-73
2022/09/08 12:43:29;;;;;;;5.17;4.87;;;15.20;99.90;;;;;;4993823;28;20468;-74
2022/09/08 12:46:24;;;;;;;5.00;4.67;;;15.20;99.90;;;;;;4996347;28;20488;-75
2022/09/08 12:49:09;;;;;;;4.77;4.37;;;15.10;99.90;;;;;;4996950;28;20473;-74
2022/09/08 12:51:37;;;;;;;4.33;4.10;;;15.10;99.90;;;;;;4985741;28;20461;-75
2022/09/08 12:54:21;;;;;;;6.07;5.50;;;15.10;99.90;;;;;;4994646;28;20497;-75
2022/09/08 12:57:16;;;;;;;4.70;4.27;;;15.10;99.90;;;;;;4995642;28;20509;-74
2022/09/08 12:59:52;;;;;;;5.33;4.93;;;15.10;99.90;;;;;;4990999;28;20469;-75
2022/09/08 13:02:37;;;;;;;5.03;4.80;;;15.00;99.90;;;;;;4987432;28;20468;-74
2022/09/08 13:05:19;;;;;;;4.90;4.50;;;14.90;99.90;;;;;;4994471;28;20462;-73
2022/09/08 13:07:54;;;;;;;5.73;5.00;;;14.90;99.90;;;;;;4968015;28;20459;-73
2022/09/08 13:10:26;;;;;;;4.17;3.97;;;15.00;99.90;;;;;;4982185;28;20959;-75
2022/09/08 13:13:19;;;;;;;5.57;5.17;;;15.00;99.90;;;;;;4988250;28;20486;-73
2022/09/08 13:15:51;;;;;;;4.80;4.40;;;15.00;99.90;;;;;;4997625;28;20532;-73
2022/09/08 13:18:30;;;;;;;4.60;4.33;;;15.00;99.90;;;;;;4996627;28;20464;-74
2022/09/08 13:21:06;;;;;;;7.97;3.80;;;15.00;99.90;;;;;;4985552;28;20679;-74
2022/09/08 13:23:48;;;;;;;3.97;3.57;;;14.90;99.90;;;;;;4995062;28;20462;-74
2022/09/08 13:26:38;;;;;;;4.40;4.10;;;14.90;99.90;;;;;;4995659;28;20489;-74
2022/09/08 13:29:28;;;;;;;5.37;4.83;;;14.90;99.90;;;;;;4994073;28;20476;-73
2022/09/08 13:32:03;;;;;;;4.70;4.47;;;14.90;99.90;;;;;;4978990;28;20458;-74
2022/09/08 13:34:55;;;;;;;5.33;4.80;;;14.90;99.90;;;;;;4976484;28;20505;-73
2022/09/08 13:37:49;;;;;;;4.93;4.63;;;14.90;99.90;;;;;;4973406;28;20515;-73
2022/09/08 13:40:31;;;;;;;4.33;3.93;;;15.00;99.90;;;;;;4983813;28;20470;-74
2022/09/08 13:43:11;;;;;;;4.60;4.40;;;14.90;99.90;;;;;;4992859;28;20472;-73
2022/09/08 13:45:47;;;;;;;4.23;3.83;;;14.90;99.90;;;;;;4997896;28;20486;-74
2022/09/08 13:48:43;;;;;;;3.53;3.30;;;15.00;99.90;;;;;;4997553;28;20988;-74
2022/09/08 13:51:43;;;;;;;3.37;3.20;;;15.00;99.90;;;;;;4984353;28;20472;-73
2022/09/08 13:54:31;;;;;;;3.20;3.10;;;15.00;99.90;;;;;;4956590;28;20495;-73
2022/09/08 13:57:27;;;;;;;4.00;3.70;;;15.00;99.90;;;;;;4957745;28;20987;-74
2022/09/08 14:00:07;;;;;;;3.13;3.00;;;15.00;99.90;;;;;;4960248;28;20891;-74
2022/09/08 14:02:44;;;;;;;3.23;3.13;;;15.10;99.90;;;;;;4986201;28;20479;-74
2022/09/08 14:05:21;;;;;;;4.37;4.17;;;15.20;99.90;;;;;;4989054;28;20473;-74
2022/09/08 14:07:55;;;;;;;3.90;3.70;;;15.10;99.90;;;;;;4997327;28;20473;-74
2022/09/08 14:10:35;;;;;;;7.67;3.83;;;15.20;99.90;;;;;;4985416;28;20471;-73
2022/09/08 14:13:17;;;;;;;3.07;2.97;;;15.20;99.90;;;;;;4988182;28;20995;-74
2022/09/08 14:15:46;;;;;;;3.43;3.33;;;15.20;99.90;;;;;;4996727;28;20501;-74
2022/09/08 14:18:32;;;;;;;2.90;2.80;;;15.20;99.90;;;;;;4973535;28;20478;-74
2022/09/08 14:21:10;;;;;;;3.50;3.33;;;15.20;99.90;;;;;;4974630;28;20470;-74
2022/09/08 14:24:03;;;;;;;2.33;2.30;;;15.20;99.90;;;;;;4987710;28;20481;-72
2022/09/08 14:26:48;;;;;;;2.50;2.40;;;15.20;99.90;;;;;;4995734;28;20490;-73
2022/09/08 14:29:25;;;;;;;2.87;2.67;;;15.20;99.90;;;;;;4994126;28;20467;-74
2022/09/08 14:32:03;;;;;;;3.70;3.50;;;15.30;99.90;;;;;;4977696;28;20456;-73
2022/09/08 14:34:35;;;;;;;2.43;2.33;;;15.30;99.90;;;;;;4993401;28;20509;-73
2022/09/08 14:37:10;;;;;;;2.33;2.33;;;15.30;99.90;;;;;;4993964;28;20490;-74
2022/09/08 14:39:48;;;;;;;2.70;2.60;;;15.30;99.90;;;;;;4989394;28;20504;-72
2022/09/08 14:42:22;;;;;;;2.93;2.83;;;15.20;99.90;;;;;;4983763;28;20467;-73
2022/09/08 14:45:16;;;;;;;3.07;2.00;;;15.20;99.90;;;;;;4996380;28;20494;-73
2022/09/08 14:48:04;;;;;;;3.23;3.13;;;15.10;99.90;;;;;;4994546;28;20477;-72
2022/09/08 14:50:55;;;;;;;3.50;3.40;;;15.10;99.90;;;;;;4985248;28;20566;-73
2022/09/08 14:53:41;;;;;;;3.70;3.50;;;15.10;99.90;;;;;;4986868;28;20518;-72
2022/09/08 14:56:17;;;;;;;2.57;2.57;;;15.00;99.90;;;;;;4994778;28;20580;-73
2022/09/08 14:58:55;;;;;;;3.10;2.90;;;15.00;99.90;;;;;;4995279;28;20489;-73
2022/09/08 15:01:29;;;;;;;3.60;3.30;;;15.00;99.90;;;;;;4982389;28;20495;-73
2022/09/08 15:04:00;;;;;;;3.80;3.50;;;15.10;99.90;;;;;;4978861;28;20614;-73
2022/09/08 15:06:50;;;;;;;3.00;2.90;;;15.10;99.90;;;;;;4982827;28;20823;-73
2022/09/08 15:09:49;;;;;;;3.33;3.13;;;15.10;99.90;;;;;;4987500;28;20488;-74
2022/09/08 15:12:33;;;;;;;2.93;2.83;;;15.00;99.90;;;;;;4981222;28;20854;-74
2022/09/08 15:15:16;;;;;;;2.83;2.73;;;14.90;99.90;;;;;;4995830;28;20500;-74
2022/09/08 15:17:52;;;;;;;3.60;3.30;;;15.00;99.90;;;;;;4995494;28;20464;-74
2022/09/08 15:20:26;;;;;;;3.00;2.90;;;14.90;99.90;;;;;;4985887;28;20466;-74
2022/09/08 15:23:05;;;;;;;2.77;2.67;;;14.90;99.90;;;;;;4987181;28;20539;-74
2022/09/08 15:25:43;;;;;;;3.20;3.10;;;14.90;99.90;;;;;;4993892;28;20493;-74
2022/09/08 15:28:27;;;;;;;3.00;2.90;;;14.90;99.90;;;;;;4994139;28;20466;-74
2022/09/08 15:31:12;;;;;;;2.93;2.83;;;14.90;99.90;;;;;;4984454;28;20470;-74
2022/09/08 15:33:47;;;;;;;2.77;2.63;;;14.90;99.90;;;;;;4984679;28;20478;-74
2022/09/08 15:36:17;;;;;;;3.33;3.23;;;14.90;99.90;;;;;;4992547;28;20495;-74
2022/09/08 15:38:52;;;;;;;2.67;2.57;;;14.90;99.90;;;;;;4974097;28;20466;-73
2022/09/08 15:41:26;;;;;;;2.20;2.20;;;14.90;99.90;;;;;;4980091;28;20473;-73
2022/09/08 15:44:09;;;;;;;3.13;3.10;;;14.90;99.90;;;;;;4986524;28;20462;-74
2022/09/08 15:46:45;;;;;;;2.83;2.47;;;14.90;99.90;;;;;;4993026;28;20517;-74
2022/09/08 15:49:26;;;;;;;2.40;2.40;;;15.00;99.90;;;;;;4976951;28;20475;-74
2022/09/08 15:52:14;;;;;;;2.60;2.50;;;14.90;99.90;;;;;;4975120;28;20474;-73
2022/09/08 15:54:48;;;;;;;2.67;2.67;;;14.90;99.90;;;;;;4972409;28;20587;-74
2022/09/08 15:57:27;;;;;;;4.60;4.20;;;14.90;99.90;;;;;;4972471;28;21013;-74
2022/09/08 16:00:09;;;;;;;2.37;2.27;;;15.00;99.90;;;;;;4975494;28;20820;-74
2022/09/08 16:03:00;;;;;;;2.60;2.50;;;14.90;99.90;;;;;;4983585;28;20552;-73
2022/09/08 16:05:55;;;;;;;2.23;2.23;;;14.90;99.90;;;;;;4991613;28;20489;-73
2022/09/08 16:08:34;;;;;;;3.00;3.00;;;14.90;99.90;;;;;;4976713;28;20858;-72
2022/09/08 16:11:10;;;;;;;2.57;2.47;;;15.00;99.90;;;;;;4974269;28;20832;-74
2022/09/08 16:13:46;;;;;;;2.27;2.17;;;15.00;99.90;;;;;;4983081;28;20542;-74
2022/09/08 16:16:38;;;;;;;3.10;3.00;;;15.00;99.90;;;;;;4984081;28;20497;-74
2022/09/08 16:19:11;;;;;;;2.33;2.33;;;15.10;99.90;;;;;;4985266;28;20485;-73
2022/09/08 16:21:41;;;;;;;3.30;3.10;;;15.10;99.90;;;;;;4983070;28;20497;-73
2022/09/08 16:24:15;;;;;;;2.07;2.07;;;15.10;99.90;;;;;;4990919;28;20466;-74
2022/09/08 16:26:48;;;;;;;2.43;2.43;;;15.10;99.90;;;;;;4986331;28;20487;-74
2022/09/08 16:29:50;;;;;;;3.17;3.07;;;15.10;99.90;;;;;;4970660;28;20937;-74
2022/09/08 16:32:18;;;;;;;2.47;2.47;;;15.10;99.90;;;;;;4980962;28;20796;-73
2022/09/08 16:34:49;;;;;;;2.13;2.13;;;15.10;99.90;;;;;;4991639;28;20494;-73
2022/09/08 16:37:25;;;;;;;3.60;3.30;;;15.10;99.90;;;;;;4991933;28;20486;-73
2022/09/08 16:40:02;;;;;;;2.47;2.27;;;15.00;99.90;;;;;;4983525;28;20481;-72
2022/09/08 16:42:35;;;;;;;2.10;2.00;;;15.10;99.90;;;;;;4984182;28;20466;-73
2022/09/08 16:45:08;;;;;;;2.90;2.80;;;15.10;99.90;;;;;;4992643;28;20466;-72
2022/09/08 16:47:49;;;;;;;3.33;3.13;;;15.10;99.90;;;;;;4992392;28;20587;-72
2022/09/08 16:50:26;;;;;;;3.07;2.97;;;15.10;99.90;;;;;;4984412;28;20467;-73
2022/09/08 16:52:54;;;;;;;3.00;2.80;;;15.10;99.90;;;;;;4986101;28;21141;-72
2022/09/08 16:55:33;;;;;;;2.87;2.77;;;15.20;99.90;;;;;;4992450;28;20498;-73
2022/09/08 16:58:09;;;;;;;4.10;3.83;;;15.10;99.90;;;;;;4994610;28;20469;-73
2022/09/08 17:01:12;;;;;;;3.30;3.20;;;15.20;99.90;;;;;;4978995;28;20476;-73
2022/09/08 17:03:51;;;;;;;3.73;3.57;;;15.20;99.90;;;;;;4997107;28;20466;-74
2022/09/08 17:06:28;;;;;;;3.20;3.10;;;15.20;99.90;;;;;;4979451;28;20496;-74
2022/09/08 17:09:02;;;;;;;3.20;3.10;;;15.20;99.90;;;;;;4977800;28;21786;-74
2022/09/08 17:11:43;;;;;;;3.90;3.73;;;15.20;99.90;;;;;;4989905;28;20974;-75
2022/09/08 17:14:11;;;;;;;2.90;2.80;;;15.20;99.90;;;;;;5000575;28;20490;-74
2022/09/08 17:17:02;;;;;;;2.27;2.27;;;15.20;99.90;;;;;;5000569;28;20493;-74
2022/09/08 17:19:51;;;;;;;2.87;2.77;;;15.30;99.90;;;;;;4992779;28;20479;-75
2022/09/08 17:22:47;;;;;;;2.87;2.77;;;15.30;99.90;;;;;;4989035;28;20470;-73
2022/09/08 17:25:37;;;;;;;3.23;3.13;;;15.30;99.90;;;;;;4996253;28;20480;-72
2022/09/08 17:28:41;;;;;;;3.50;3.20;;;15.30;99.90;;;;;;4997548;28;20467;-73
2022/09/08 17:31:25;;;;;;;3.60;3.43;;;15.20;99.90;;;;;;4980319;28;20547;-74
2022/09/08 17:34:27;;;;;;;2.67;2.57;;;15.30;99.90;;;;;;4956165;28;21016;-73
2022/09/08 17:37:05;;;;;;;4.20;4.00;;;15.30;99.90;;;;;;4977684;28;20493;-73
2022/09/08 17:39:38;;;;;;;4.27;4.03;;;15.20;99.90;;;;;;4975586;28;20560;-74
2022/09/08 17:42:10;;;;;;;3.13;3.07;;;15.20;99.90;;;;;;4976269;28;20478;-72
2022/09/08 17:44:50;;;;;;;3.50;3.40;;;15.20;99.90;;;;;;4972207;28;20471;-72
2022/09/08 17:47:36;;;;;;;3.50;3.30;;;15.20;99.90;;;;;;4987456;28;20489;-73
2022/09/08 17:50:17;;;;;;;4.40;4.13;;;15.20;99.90;;;;;;4979031;28;20474;-73
2022/09/08 17:52:53;;;;;;;3.77;3.57;;;15.20;99.90;;;;;;4972364;28;20851;-73